createdAt,value
2017-06-02T00:02:24.562Z,18.80
2017-06-02T00:04:51.244Z,18.70
2017-06-02T00:07:17.864Z,18.70
2017-06-02T00:09:44.533Z,18.70
2017-06-02T00:12:11.161Z,18.70
2017-06-02T00:14:37.809Z,18.60
2017-06-02T00:17:04.453Z,18.60
2017-06-02T00:19:31.115Z,18.60
2017-06-02T00:21:57.757Z,18.50
2017-06-02T00:24:24.062Z,18.50
2017-06-02T00:26:50.329Z,18.50
2017-06-02T00:29:16.981Z,18.40
2017-06-02T00:31:43.246Z,18.40
2017-06-02T00:34:09.526Z,18.40
2017-06-02T00:36:35.784Z,18.40
2017-06-02T00:39:02.081Z,18.40
2017-06-02T00:41:28.329Z,18.30
2017-06-02T00:43:54.965Z,18.20
2017-06-02T00:46:21.579Z,18.10
2017-06-02T00:48:48.216Z,18.10
2017-06-02T00:51:14.832Z,18.00
2017-06-02T00:53:41.485Z,18.00
2017-06-02T00:56:08.125Z,17.90
2017-06-02T00:58:34.393Z,17.90
2017-06-02T01:01:01.029Z,17.60
2017-06-02T01:03:27.601Z,17.60
2017-06-02T01:05:54.279Z,17.50
2017-06-02T01:08:20.546Z,17.50
2017-06-02T01:10:47.200Z,17.40
2017-06-02T01:13:13.869Z,17.40
2017-06-02T01:15:40.521Z,17.40
2017-06-02T01:18:07.141Z,17.30
2017-06-02T01:20:33.779Z,17.30
2017-06-02T01:23:00.396Z,17.30
2017-06-02T01:25:26.662Z,17.30
2017-06-02T01:27:53.282Z,17.40
2017-06-02T01:30:19.956Z,17.30
2017-06-02T01:32:46.601Z,17.30
2017-06-02T01:35:13.296Z,17.40
2017-06-02T01:37:39.946Z,17.40
2017-06-02T01:40:06.622Z,17.40
2017-06-02T01:42:33.277Z,17.30
2017-06-02T01:44:59.949Z,17.40
2017-06-02T01:47:26.237Z,17.40
2017-06-02T01:49:52.533Z,17.50
2017-06-02T01:52:19.184Z,17.50
2017-06-02T01:54:45.465Z,17.50
2017-06-02T01:57:12.084Z,17.20
2017-06-02T01:59:38.717Z,17.10
2017-06-02T02:02:05.340Z,17.10
2017-06-02T02:04:31.981Z,17.00
2017-06-02T02:06:58.625Z,16.90
2017-06-02T02:09:24.897Z,16.90
2017-06-02T02:11:51.513Z,16.90
2017-06-02T02:14:18.041Z,16.90
2017-06-02T02:16:44.309Z,16.80
2017-06-02T02:19:10.552Z,16.60
2017-06-02T02:21:37.189Z,16.70
2017-06-02T02:24:03.801Z,16.70
2017-06-02T02:26:30.449Z,16.80
2017-06-02T02:28:56.705Z,16.80
2017-06-02T02:31:22.969Z,16.80
2017-06-02T02:33:49.565Z,17.00
2017-06-02T02:36:16.266Z,16.90
2017-06-02T02:38:42.885Z,16.90
2017-06-02T02:41:09.533Z,16.80
2017-06-02T02:43:35.780Z,16.80
2017-06-02T02:46:02.413Z,16.70
2017-06-02T02:48:29.042Z,16.80
2017-06-02T02:50:55.671Z,16.90
2017-06-02T02:53:22.303Z,17.00
2017-06-02T02:55:48.951Z,17.00
2017-06-02T02:58:15.209Z,17.00
2017-06-02T03:00:41.865Z,16.80
2017-06-02T03:03:08.489Z,16.60
2017-06-02T03:05:35.149Z,16.60
2017-06-02T03:08:01.795Z,16.50
2017-06-02T03:10:28.436Z,16.50
2017-06-02T03:12:55.115Z,16.50
2017-06-02T03:15:21.766Z,16.60
2017-06-02T03:17:48.392Z,16.60
2017-06-02T03:20:15.024Z,16.60
2017-06-02T03:22:41.672Z,16.70
2017-06-02T03:25:08.267Z,16.60
2017-06-02T03:27:34.899Z,16.50
2017-06-02T03:30:01.509Z,16.50
2017-06-02T03:32:27.817Z,16.50
2017-06-02T03:34:54.078Z,16.50
2017-06-02T03:37:20.741Z,16.60
2017-06-02T03:39:47.365Z,16.60
2017-06-02T03:42:13.641Z,16.60
2017-06-02T03:44:40.263Z,16.50
2017-06-02T03:47:06.552Z,16.50
2017-06-02T03:49:33.187Z,16.50
2017-06-02T03:51:59.477Z,16.50
2017-06-02T03:54:25.741Z,16.50
2017-06-02T03:56:52.405Z,16.40
2017-06-02T03:59:19.044Z,16.40
2017-06-02T04:01:45.689Z,16.50
2017-06-02T04:04:11.945Z,16.50
2017-06-02T04:06:38.238Z,16.50
2017-06-02T04:09:04.493Z,16.40
2017-06-02T04:11:31.117Z,16.40
2017-06-02T04:13:57.381Z,16.40
2017-06-02T04:16:24.035Z,16.40
2017-06-02T04:18:50.665Z,16.50
2017-06-02T04:21:17.361Z,16.60
2017-06-02T04:23:43.980Z,16.70
2017-06-02T04:26:10.615Z,16.80
2017-06-02T04:28:37.233Z,16.80
2017-06-02T04:31:03.868Z,16.80
2017-06-02T04:33:30.478Z,16.80
2017-06-02T04:35:57.105Z,16.90
2017-06-02T04:38:23.756Z,17.00
2017-06-02T04:40:50.390Z,17.00
2017-06-02T04:43:17.410Z,17.00
2017-06-02T04:45:44.028Z,17.10
2017-06-02T04:48:10.668Z,17.20
2017-06-02T04:50:37.315Z,17.20
2017-06-02T04:53:03.967Z,17.30
2017-06-02T04:55:30.573Z,17.50
2017-06-02T04:57:56.838Z,17.50
2017-06-02T05:00:23.456Z,17.50
2017-06-02T05:02:50.109Z,17.60
2017-06-02T05:05:16.745Z,17.80
2017-06-02T05:07:43.400Z,17.80
2017-06-02T05:10:10.039Z,17.90
2017-06-02T05:12:36.656Z,18.00
2017-06-02T05:15:02.933Z,18.00
2017-06-02T05:17:29.615Z,18.10
2017-06-02T05:19:56.257Z,18.30
2017-06-02T05:22:22.527Z,18.30
2017-06-02T05:24:49.166Z,18.40
2017-06-02T05:27:15.822Z,18.40
2017-06-02T05:29:42.867Z,18.60
2017-06-02T05:32:09.525Z,18.60
2017-06-02T05:34:35.805Z,18.60
2017-06-02T05:37:02.459Z,18.80
2017-06-02T05:39:29.103Z,18.80
2017-06-02T05:41:55.397Z,18.80
2017-06-02T05:44:22.056Z,18.90
2017-06-02T05:46:48.697Z,19.00
2017-06-02T05:49:15.360Z,19.00
2017-06-02T05:51:42.001Z,19.10
2017-06-02T05:54:08.657Z,19.20
2017-06-02T05:56:35.422Z,19.20
2017-06-02T05:59:02.201Z,19.40
2017-06-02T06:01:28.856Z,19.50
2017-06-02T06:03:55.128Z,19.40
2017-06-02T06:06:21.397Z,19.50
2017-06-02T06:08:47.685Z,19.60
2017-06-02T06:11:14.325Z,19.70
2017-06-02T06:13:40.967Z,19.80
2017-06-02T06:16:07.595Z,19.90
2017-06-02T06:18:34.229Z,20.10
2017-06-02T06:21:00.849Z,20.20
2017-06-02T06:23:27.508Z,20.40
2017-06-02T06:25:54.133Z,20.40
2017-06-02T06:28:20.788Z,20.50
2017-06-02T06:30:47.418Z,20.60
2017-06-02T06:33:14.377Z,20.70
2017-06-02T06:35:41.214Z,20.80
2017-06-02T06:38:07.847Z,20.90
2017-06-02T06:40:34.508Z,21.10
2017-06-02T06:43:01.173Z,21.20
2017-06-02T06:45:27.849Z,21.20
2017-06-02T06:47:54.469Z,21.30
2017-06-02T06:50:21.118Z,21.50
2017-06-02T06:52:47.781Z,21.60
2017-06-02T06:55:14.417Z,21.80
2017-06-02T06:57:40.687Z,21.80
2017-06-02T07:00:06.964Z,22.00
2017-06-02T07:02:33.205Z,22.10
2017-06-02T07:04:59.926Z,22.40
2017-06-02T07:07:26.581Z,22.50
2017-06-02T07:09:52.833Z,22.50
2017-06-02T07:12:19.467Z,22.80
2017-06-02T07:14:46.129Z,22.90
2017-06-02T07:17:12.401Z,22.90
2017-06-02T07:19:39.103Z,23.10
2017-06-02T07:22:05.729Z,23.20
2017-06-02T07:24:32.000Z,23.20
2017-06-02T07:26:58.664Z,23.30
2017-06-02T07:29:24.946Z,23.30
2017-06-02T07:31:51.629Z,23.50
2017-06-02T07:34:18.264Z,23.40
2017-06-02T07:36:44.920Z,23.40
2017-06-02T07:39:11.329Z,23.40
2017-06-02T07:41:37.617Z,23.50
2017-06-02T07:44:04.253Z,23.70
2017-06-02T07:46:30.876Z,23.80
2017-06-02T07:48:57.165Z,23.80
2017-06-02T07:51:23.494Z,23.90
2017-06-02T07:53:50.120Z,23.90
2017-06-02T07:56:16.732Z,24.00
2017-06-02T07:58:43.377Z,24.00
2017-06-02T08:01:10.009Z,24.10
2017-06-02T08:03:36.679Z,24.20
2017-06-02T08:06:03.356Z,24.30
2017-06-02T08:08:29.984Z,24.30
2017-06-02T08:10:56.255Z,24.30
2017-06-02T08:13:22.872Z,24.30
2017-06-02T08:15:50.356Z,24.30
2017-06-02T08:18:16.608Z,24.30
2017-06-02T08:20:43.231Z,24.30
2017-06-02T08:23:09.912Z,24.40
2017-06-02T08:25:36.623Z,24.50
2017-06-02T08:28:02.881Z,24.50
2017-06-02T08:30:29.524Z,24.70
2017-06-02T08:32:55.793Z,24.70
2017-06-02T08:35:22.436Z,24.70
2017-06-02T08:37:49.072Z,24.70
2017-06-02T08:40:15.733Z,24.80
2017-06-02T08:42:42.369Z,24.80
2017-06-02T08:45:09.031Z,24.80
2017-06-02T08:47:35.337Z,24.80
2017-06-02T08:50:01.675Z,24.80
2017-06-02T08:52:28.204Z,24.80
2017-06-02T08:54:54.845Z,24.80
2017-06-02T08:57:21.462Z,25.00
2017-06-02T08:59:48.125Z,25.00
2017-06-02T09:02:14.384Z,25.10
2017-06-02T09:04:41.017Z,25.00
2017-06-02T09:07:07.629Z,24.90
2017-06-02T09:09:34.320Z,24.90
2017-06-02T09:12:00.929Z,25.00
2017-06-02T09:14:27.556Z,25.20
2017-06-02T09:16:54.171Z,25.30
2017-06-02T09:19:20.833Z,25.50
2017-06-02T09:21:47.084Z,25.50
2017-06-02T09:24:13.713Z,25.80
2017-06-02T09:26:40.338Z,25.90
2017-06-02T09:29:06.576Z,25.90
2017-06-02T09:31:33.381Z,26.00
2017-06-02T09:34:00.001Z,26.10
2017-06-02T09:36:26.641Z,26.00
2017-06-02T09:38:53.285Z,26.00
2017-06-02T09:41:19.932Z,26.10
2017-06-02T09:43:46.203Z,26.10
2017-06-02T09:46:12.846Z,26.30
2017-06-02T09:48:39.229Z,26.40
2017-06-02T09:51:05.890Z,26.10
2017-06-02T09:53:32.137Z,26.10
2017-06-02T09:55:58.795Z,26.50
2017-06-02T09:58:25.425Z,26.70
2017-06-02T10:00:52.054Z,26.80
2017-06-02T10:03:18.316Z,26.80
2017-06-02T10:05:44.584Z,27.00
2017-06-02T10:08:11.277Z,27.20
2017-06-02T10:10:37.916Z,27.40
2017-06-02T10:13:04.159Z,27.40
2017-06-02T10:15:30.832Z,27.50
2017-06-02T10:17:57.461Z,27.60
2017-06-02T10:20:24.700Z,27.60
2017-06-02T10:22:51.348Z,27.90
2017-06-02T10:25:18.016Z,27.90
2017-06-02T10:27:44.649Z,28.10
2017-06-02T10:30:12.094Z,28.30
2017-06-02T10:32:38.732Z,28.30
2017-06-02T10:35:05.349Z,28.50
2017-06-02T10:37:32.273Z,28.50
2017-06-02T10:39:59.174Z,28.50
2017-06-02T10:42:25.801Z,28.50
2017-06-02T10:44:52.439Z,28.70
2017-06-02T10:47:18.713Z,28.70
2017-06-02T10:49:45.349Z,29.30
2017-06-02T10:52:12.024Z,29.50
2017-06-02T10:54:38.673Z,29.50
2017-06-02T10:57:05.318Z,29.50
2017-06-02T10:59:31.988Z,29.80
2017-06-02T11:01:58.648Z,30.10
2017-06-02T11:04:25.269Z,30.10
2017-06-02T11:06:51.907Z,30.00
2017-06-02T11:09:18.182Z,30.10
2017-06-02T11:11:44.833Z,29.60
2017-06-02T11:14:11.545Z,29.70
2017-06-02T11:16:38.183Z,29.80
2017-06-02T11:19:04.825Z,29.90
2017-06-02T11:21:31.497Z,29.80
2017-06-02T11:23:57.750Z,29.80
2017-06-02T11:26:24.390Z,29.80
2017-06-02T11:28:51.010Z,29.80
2017-06-02T11:31:17.662Z,30.10
2017-06-02T11:33:44.284Z,30.30
2017-06-02T11:36:10.978Z,30.80
2017-06-02T11:38:37.611Z,31.10
2017-06-02T11:41:04.240Z,31.10
2017-06-02T11:43:30.884Z,31.20
2017-06-02T11:45:57.913Z,31.10
2017-06-02T11:48:24.564Z,31.40
2017-06-02T11:50:51.184Z,31.60
2017-06-02T11:53:17.840Z,31.80
2017-06-02T11:55:44.115Z,31.80
2017-06-02T11:58:10.793Z,32.20
2017-06-02T12:00:37.468Z,32.20
2017-06-02T12:03:04.140Z,32.20
2017-06-02T12:05:30.947Z,32.40
2017-06-02T12:07:57.604Z,32.70
2017-06-02T12:10:23.890Z,32.70
2017-06-02T12:12:50.560Z,32.70
2017-06-02T12:15:17.177Z,32.30
2017-06-02T12:17:43.825Z,32.00
2017-06-02T12:20:10.561Z,31.70
2017-06-02T12:22:37.245Z,31.50
2017-06-02T12:25:03.968Z,31.40
2017-06-02T12:27:30.475Z,31.40
2017-06-02T12:29:57.140Z,31.30
2017-06-02T12:32:23.761Z,31.60
2017-06-02T12:34:50.401Z,32.50
2017-06-02T12:37:17.041Z,33.40
2017-06-02T12:39:43.305Z,33.40
2017-06-02T12:42:09.954Z,33.90
2017-06-02T12:44:36.582Z,33.50
2017-06-02T12:47:02.955Z,33.50
2017-06-02T12:49:29.798Z,34.40
2017-06-02T12:51:56.424Z,34.60
2017-06-02T12:54:23.065Z,34.00
2017-06-02T12:56:49.717Z,33.40
2017-06-02T12:59:16.555Z,32.70
2017-06-02T13:01:43.182Z,32.30
2017-06-02T13:04:09.846Z,31.00
2017-06-02T13:06:36.098Z,31.00
2017-06-02T13:09:02.830Z,29.50
2017-06-02T13:11:29.536Z,29.20
2017-06-02T13:13:55.828Z,29.20
2017-06-02T13:16:22.607Z,28.50
2017-06-02T13:18:49.253Z,28.40
2017-06-02T13:21:15.526Z,28.40
2017-06-02T13:23:42.179Z,28.20
2017-06-02T13:26:08.831Z,28.20
2017-06-02T13:28:36.140Z,28.10
2017-06-02T13:31:02.432Z,28.10
2017-06-02T13:33:29.072Z,28.00
2017-06-02T13:35:55.721Z,28.20
2017-06-02T13:38:21.992Z,28.20
2017-06-02T13:40:48.789Z,28.00
2017-06-02T13:43:15.441Z,27.80
2017-06-02T13:45:42.077Z,27.80
2017-06-02T13:48:08.740Z,27.80
2017-06-02T13:50:35.368Z,28.00
2017-06-02T13:53:01.762Z,28.00
2017-06-02T13:55:28.408Z,28.30
2017-06-02T13:57:55.056Z,29.50
2017-06-02T14:00:21.325Z,29.50
2017-06-02T14:02:47.949Z,33.00
2017-06-02T14:05:14.600Z,34.10
2017-06-02T14:07:40.972Z,34.10
2017-06-02T14:10:07.626Z,35.60
2017-06-02T14:12:33.877Z,35.60
2017-06-02T14:15:00.526Z,35.70
2017-06-02T14:17:27.322Z,35.60
2017-06-02T14:19:53.606Z,35.60
2017-06-02T14:22:20.245Z,35.30
2017-06-02T14:24:46.497Z,35.20
2017-06-02T14:27:13.259Z,35.50
2017-06-02T14:29:39.533Z,35.50
2017-06-02T14:32:06.180Z,33.50
2017-06-02T14:34:32.450Z,33.60
2017-06-02T14:36:59.101Z,32.60
2017-06-02T14:39:25.466Z,32.60
2017-06-02T14:41:52.122Z,33.00
2017-06-02T14:44:18.381Z,33.00
2017-06-02T14:46:45.000Z,31.90
2017-06-02T14:49:11.653Z,31.30
2017-06-02T14:51:38.281Z,31.40
2017-06-02T14:54:05.353Z,31.20
2017-06-02T14:56:31.980Z,30.90
2017-06-02T14:58:58.629Z,30.40
2017-06-02T15:01:25.497Z,30.40
2017-06-02T15:03:51.792Z,30.30
2017-06-02T15:06:18.441Z,30.00
2017-06-02T15:08:45.129Z,29.70
2017-06-02T15:11:11.792Z,29.70
2017-06-02T15:13:38.441Z,29.60
2017-06-02T15:16:05.412Z,29.60
2017-06-02T15:18:32.046Z,29.60
2017-06-02T15:20:58.702Z,29.30
2017-06-02T15:23:25.362Z,28.70
2017-06-02T15:25:52.019Z,28.30
2017-06-02T15:28:19.021Z,27.90
2017-06-02T15:30:45.673Z,27.50
2017-06-02T15:33:12.274Z,27.40
2017-06-02T15:35:38.559Z,27.40
2017-06-02T15:38:05.189Z,27.30
2017-06-02T15:40:31.861Z,27.30
2017-06-02T15:42:58.509Z,27.20
2017-06-02T15:45:24.808Z,27.20
2017-06-02T15:47:51.065Z,27.20
2017-06-02T15:50:17.846Z,27.60
2017-06-02T15:52:44.776Z,27.70
2017-06-02T15:55:11.430Z,27.80
2017-06-02T15:57:38.077Z,27.70
2017-06-02T16:00:04.730Z,27.80
2017-06-02T16:02:31.364Z,27.70
2017-06-02T16:04:58.313Z,27.70
2017-06-02T16:07:24.943Z,28.20
2017-06-02T16:09:51.586Z,28.90
2017-06-02T16:12:18.224Z,29.10
2017-06-02T16:14:44.872Z,29.00
2017-06-02T16:17:11.960Z,28.90
2017-06-02T16:19:38.587Z,28.90
2017-06-02T16:22:05.221Z,29.00
2017-06-02T16:24:31.502Z,29.00
2017-06-02T16:26:57.773Z,28.60
2017-06-02T16:29:24.742Z,28.10
2017-06-02T16:31:51.371Z,27.60
2017-06-02T16:34:17.989Z,27.30
2017-06-02T16:36:44.659Z,27.20
2017-06-02T16:39:10.921Z,27.20
2017-06-02T16:41:37.864Z,27.00
2017-06-02T16:44:04.132Z,27.00
2017-06-02T16:46:30.813Z,26.40
2017-06-02T16:48:57.089Z,26.40
2017-06-02T16:51:23.735Z,26.10
2017-06-02T16:53:50.725Z,26.20
2017-06-02T16:56:17.349Z,26.30
2017-06-02T16:58:43.978Z,26.50
2017-06-02T17:01:10.622Z,26.60
2017-06-02T17:03:37.252Z,26.30
2017-06-02T17:06:04.237Z,26.40
2017-06-02T17:08:30.883Z,26.40
2017-06-02T17:10:57.552Z,26.20
2017-06-02T17:13:23.849Z,26.30
2017-06-02T17:15:50.570Z,26.10
2017-06-02T17:18:17.235Z,26.20
2017-06-02T17:20:43.869Z,26.20
2017-06-02T17:23:10.184Z,26.20
2017-06-02T17:25:36.840Z,26.10
2017-06-02T17:28:03.477Z,26.10
2017-06-02T17:30:30.186Z,26.10
2017-06-02T17:32:56.453Z,26.00
2017-06-02T17:35:23.107Z,26.00
2017-06-02T17:37:49.838Z,25.90
2017-06-02T17:40:16.530Z,25.90
2017-06-02T17:42:43.212Z,25.80
2017-06-02T17:45:09.505Z,25.80
2017-06-02T17:47:35.828Z,25.70
2017-06-02T17:50:02.541Z,25.50
2017-06-02T17:52:29.207Z,25.50
2017-06-02T17:54:55.511Z,25.50
2017-06-02T17:57:22.164Z,25.30
2017-06-02T17:59:48.842Z,25.30
2017-06-02T18:02:15.522Z,25.10
2017-06-02T18:04:41.840Z,25.10
2017-06-02T18:07:08.814Z,24.70
2017-06-02T18:09:35.089Z,24.70
2017-06-02T18:12:01.593Z,24.60
2017-06-02T18:14:28.316Z,24.30
2017-06-02T18:16:54.941Z,24.20
2017-06-02T18:19:22.367Z,24.20
2017-06-02T18:21:49.114Z,24.10
2017-06-02T18:24:15.817Z,24.00
2017-06-02T18:26:42.477Z,23.90
2017-06-02T18:29:09.593Z,23.80
2017-06-02T18:31:35.876Z,23.80
2017-06-02T18:34:02.511Z,23.50
2017-06-02T18:36:28.789Z,23.50
2017-06-02T18:38:55.537Z,23.60
2017-06-02T18:41:23.173Z,23.50
2017-06-02T18:43:49.812Z,23.40
2017-06-02T18:46:17.390Z,23.30
2017-06-02T18:48:44.053Z,23.20
2017-06-02T18:51:10.773Z,23.10
2017-06-02T18:53:37.069Z,23.10
2017-06-02T18:56:03.740Z,23.00
2017-06-02T18:58:30.028Z,23.10
2017-06-02T19:00:56.711Z,23.00
2017-06-02T19:03:23.552Z,22.90
2017-06-02T19:05:50.397Z,22.80
2017-06-02T19:08:16.684Z,22.90
2017-06-02T19:10:43.067Z,22.80
2017-06-02T19:13:09.713Z,22.60
2017-06-02T19:15:36.025Z,22.60
2017-06-02T19:18:02.281Z,22.60
2017-06-02T19:20:29.207Z,22.40
2017-06-02T19:22:56.655Z,22.40
2017-06-02T19:25:22.924Z,22.40
2017-06-02T19:27:49.257Z,22.40
2017-06-02T19:30:15.534Z,22.40
2017-06-02T19:32:42.387Z,22.40
2017-06-02T19:35:09.228Z,22.30
2017-06-02T19:37:35.917Z,22.40
2017-06-02T19:40:02.585Z,22.40
2017-06-02T19:42:28.902Z,22.40
2017-06-02T19:44:55.555Z,22.40
2017-06-02T19:47:23.236Z,22.30
2017-06-02T19:49:50.077Z,22.20
2017-06-02T19:52:16.708Z,22.20
2017-06-02T19:54:43.392Z,22.20
2017-06-02T19:57:10.066Z,22.10
2017-06-02T19:59:37.065Z,22.20
2017-06-02T20:02:04.398Z,22.20
2017-06-02T20:04:31.076Z,22.20
2017-06-02T20:06:57.794Z,22.20
2017-06-02T20:09:24.994Z,22.20
2017-06-02T20:11:55.845Z,22.20
2017-06-02T20:14:22.486Z,22.20
2017-06-02T20:16:48.832Z,22.20
2017-06-02T20:19:15.150Z,22.20
2017-06-02T20:21:41.808Z,22.20
2017-06-02T20:24:08.081Z,22.20
2017-06-02T20:26:34.364Z,22.10
2017-06-02T20:29:01.195Z,22.00
2017-06-02T20:31:27.499Z,22.00
2017-06-02T20:33:53.788Z,22.00
2017-06-02T20:36:20.323Z,22.00
2017-06-02T20:38:46.964Z,21.90
2017-06-02T20:41:13.617Z,21.90
2017-06-02T20:43:40.266Z,21.90
2017-06-02T20:46:07.441Z,21.90
2017-06-02T20:48:34.082Z,21.90
2017-06-02T20:51:01.005Z,21.90
2017-06-02T20:53:27.285Z,21.90
2017-06-02T20:55:53.932Z,21.90
2017-06-02T20:58:20.589Z,21.90
2017-06-02T21:00:47.213Z,21.90
2017-06-02T21:03:13.530Z,21.90
2017-06-02T21:05:40.177Z,21.80
2017-06-02T21:08:06.825Z,21.70
2017-06-02T21:10:33.446Z,21.70
2017-06-02T21:13:00.114Z,21.60
2017-06-02T21:15:26.738Z,21.60
2017-06-02T21:17:53.537Z,21.50
2017-06-02T21:20:20.206Z,21.50
2017-06-02T21:22:47.016Z,21.40
2017-06-02T21:25:13.289Z,21.40
2017-06-02T21:27:39.948Z,21.40
2017-06-02T21:30:06.218Z,21.40
2017-06-02T21:32:33.694Z,21.30
2017-06-02T21:35:00.333Z,21.30
2017-06-02T21:37:26.985Z,21.10
2017-06-02T21:39:53.682Z,21.00
2017-06-02T21:42:20.340Z,21.00
2017-06-02T21:44:46.606Z,21.00
2017-06-02T21:47:13.245Z,20.80
2017-06-02T21:49:39.914Z,20.80
2017-06-02T21:52:06.196Z,20.80
2017-06-02T21:54:32.845Z,20.60
2017-06-02T21:56:59.488Z,20.50
2017-06-02T21:59:26.177Z,20.40
2017-06-02T22:01:52.840Z,20.30
2017-06-02T22:04:19.492Z,20.10
2017-06-02T22:06:45.757Z,20.10
2017-06-02T22:09:12.388Z,20.00
2017-06-02T22:11:39.042Z,19.90
2017-06-02T22:14:05.691Z,19.90
2017-06-02T22:16:32.392Z,19.90
2017-06-02T22:18:59.081Z,19.90
2017-06-02T22:21:25.911Z,19.90
2017-06-02T22:23:52.759Z,19.90
2017-06-02T22:26:19.044Z,20.00
2017-06-02T22:28:45.709Z,19.90
2017-06-02T22:31:12.430Z,19.90
2017-06-02T22:33:39.095Z,19.90
2017-06-02T22:36:05.530Z,19.90
2017-06-02T22:38:32.220Z,19.90
2017-06-02T22:40:59.010Z,19.90
2017-06-02T22:43:25.853Z,19.90
2017-06-02T22:45:52.539Z,19.80
2017-06-02T22:48:19.244Z,19.70
2017-06-02T22:50:45.574Z,19.70
2017-06-02T22:53:12.248Z,19.70
2017-06-02T22:55:38.893Z,19.70
2017-06-02T22:58:05.500Z,19.70
2017-06-02T23:00:31.792Z,19.70
2017-06-02T23:02:58.424Z,19.60
2017-06-02T23:05:24.689Z,19.70
2017-06-02T23:07:51.317Z,19.60
2017-06-02T23:10:17.956Z,19.60
2017-06-02T23:12:44.208Z,19.60
2017-06-02T23:15:10.881Z,19.50
2017-06-02T23:17:37.500Z,19.50
2017-06-02T23:20:03.765Z,19.50
2017-06-02T23:22:30.622Z,19.40
2017-06-02T23:24:57.256Z,19.40
2017-06-02T23:27:23.872Z,19.40
2017-06-02T23:29:50.508Z,19.40
2017-06-02T23:32:17.169Z,19.40
2017-06-02T23:34:43.419Z,19.40
2017-06-02T23:37:09.670Z,19.40
2017-06-02T23:39:35.935Z,19.30
2017-06-02T23:42:02.554Z,19.30
2017-06-02T23:44:29.179Z,19.30
2017-06-02T23:46:55.437Z,19.30
2017-06-02T23:49:21.766Z,19.30
2017-06-02T23:51:48.414Z,19.30
2017-06-02T23:54:14.673Z,19.30
2017-06-02T23:56:40.959Z,19.20
2017-06-02T23:59:07.317Z,19.20
